createdAt,value
2023-04-10T00:02:03.142Z,79.00
2023-04-10T00:04:30.839Z,79.00
2023-04-10T00:06:57.877Z,79.10
2023-04-10T00:09:24.789Z,79.30
2023-04-10T00:11:51.708Z,79.60
2023-04-10T00:14:23.299Z,79.50
2023-04-10T00:16:50.809Z,79.40
2023-04-10T00:19:17.835Z,79.30
2023-04-10T00:21:44.901Z,79.40
2023-04-10T00:24:11.817Z,79.80
2023-04-10T00:26:38.782Z,80.00
2023-04-10T00:29:06.869Z,80.10
2023-04-10T00:31:34.166Z,79.80
2023-04-10T00:34:01.313Z,79.60
2023-04-10T00:36:28.632Z,79.40
2023-04-10T00:38:55.562Z,79.40
2023-04-10T00:41:24.074Z,79.40
2023-04-10T00:43:55.765Z,79.50
2023-04-10T00:46:23.228Z,79.60
2023-04-10T00:48:54.444Z,79.60
2023-04-10T00:51:21.783Z,79.50
2023-04-10T00:53:51.463Z,79.40
2023-04-10T00:56:18.944Z,79.50
2023-04-10T00:58:45.894Z,79.40
2023-04-10T01:01:13.519Z,79.40
2023-04-10T01:03:42.019Z,79.40
2023-04-10T01:06:27.473Z,79.40
2023-04-10T01:09:12.443Z,79.40
2023-04-10T01:11:39.319Z,79.50
2023-04-10T01:14:35.280Z,79.40
2023-04-10T01:17:07.815Z,79.40
2023-04-10T01:19:40.560Z,79.50
2023-04-10T01:22:11.899Z,79.60
2023-04-10T01:24:53.984Z,79.40
2023-04-10T01:27:21.063Z,79.30
2023-04-10T01:29:52.537Z,79.20
2023-04-10T01:32:22.116Z,79.10
2023-04-10T01:34:54.588Z,79.10
2023-04-10T01:37:26.297Z,79.10
2023-04-10T01:40:03.436Z,79.20
2023-04-10T01:42:32.002Z,79.10
2023-04-10T01:44:59.461Z,79.20
2023-04-10T01:47:26.918Z,79.20
2023-04-10T01:49:55.031Z,78.80
2023-04-10T01:52:23.010Z,78.90
2023-04-10T01:54:50.606Z,78.80
2023-04-10T01:57:17.626Z,78.80
2023-04-10T01:59:44.645Z,78.90
2023-04-10T02:02:12.544Z,78.90
2023-04-10T02:04:39.780Z,78.90
2023-04-10T02:07:07.086Z,78.80
2023-04-10T02:09:52.752Z,78.70
2023-04-10T02:12:23.058Z,78.70
2023-04-10T02:14:51.150Z,78.50
2023-04-10T02:17:22.128Z,78.40
2023-04-10T02:19:49.287Z,78.10
2023-04-10T02:22:17.072Z,78.10
2023-04-10T02:24:44.351Z,78.10
2023-04-10T02:27:11.197Z,78.10
2023-04-10T02:29:38.139Z,78.20
2023-04-10T02:32:05.173Z,78.30
2023-04-10T02:34:32.211Z,78.20
2023-04-10T02:36:59.098Z,78.20
2023-04-10T02:39:26.090Z,78.20
2023-04-10T02:41:52.998Z,78.30
2023-04-10T02:44:19.941Z,78.20
2023-04-10T02:46:47.317Z,78.10
2023-04-10T02:49:14.274Z,78.10
2023-04-10T02:51:41.247Z,78.10
2023-04-10T02:54:08.197Z,78.30
2023-04-10T02:56:35.502Z,78.20
2023-04-10T02:59:02.678Z,78.20
2023-04-10T03:01:30.205Z,78.10
2023-04-10T03:03:58.619Z,78.00
2023-04-10T03:06:27.514Z,78.10
2023-04-10T03:08:54.518Z,78.00
2023-04-10T03:11:21.383Z,77.70
2023-04-10T03:13:49.367Z,78.00
2023-04-10T03:16:17.665Z,77.90
2023-04-10T03:18:45.022Z,77.60
2023-04-10T03:21:12.007Z,77.40
2023-04-10T03:23:38.962Z,77.20
2023-04-10T03:26:06.097Z,77.30
2023-04-10T03:28:35.713Z,77.40
2023-04-10T03:31:03.153Z,77.40
2023-04-10T03:33:30.281Z,77.00
2023-04-10T03:35:58.372Z,76.50
2023-04-10T03:38:25.471Z,76.50
2023-04-10T03:40:54.026Z,76.80
2023-04-10T03:43:21.077Z,77.00
2023-04-10T03:45:48.077Z,77.10
2023-04-10T03:48:15.020Z,77.10
2023-04-10T03:50:42.024Z,77.30
2023-04-10T03:53:08.995Z,77.40
2023-04-10T03:55:37.214Z,77.50
2023-04-10T03:58:04.441Z,77.50
2023-04-10T04:00:31.721Z,77.60
2023-04-10T04:03:00.143Z,77.60
2023-04-10T04:05:27.298Z,77.60
2023-04-10T04:07:54.169Z,77.70
2023-04-10T04:10:21.053Z,77.60
2023-04-10T04:12:47.979Z,77.60
2023-04-10T04:15:14.876Z,77.60
2023-04-10T04:17:42.157Z,77.30
2023-04-10T04:20:09.325Z,77.30
2023-04-10T04:22:36.344Z,77.40
2023-04-10T04:25:03.354Z,77.40
2023-04-10T04:27:30.543Z,77.40
2023-04-10T04:29:57.508Z,77.30
2023-04-10T04:32:24.497Z,77.10
2023-04-10T04:34:51.395Z,77.10
2023-04-10T04:37:18.353Z,77.20
2023-04-10T04:39:45.305Z,77.20
2023-04-10T04:42:12.282Z,77.30
2023-04-10T04:44:39.205Z,77.30
2023-04-10T04:47:06.141Z,77.00
2023-04-10T04:49:33.046Z,76.70
2023-04-10T04:52:00.004Z,76.80
2023-04-10T04:54:26.997Z,76.80
2023-04-10T04:56:53.897Z,77.00
2023-04-10T04:59:20.916Z,77.40
2023-04-10T05:01:47.922Z,77.60
2023-04-10T05:04:15.104Z,77.70
2023-04-10T05:06:42.108Z,77.50
2023-04-10T05:09:08.911Z,77.40
2023-04-10T05:11:35.756Z,77.40
2023-04-10T05:14:02.691Z,77.40
2023-04-10T05:16:29.599Z,77.40
2023-04-10T05:18:56.991Z,77.40
2023-04-10T05:21:24.192Z,77.20
2023-04-10T05:23:51.299Z,77.10
2023-04-10T05:26:18.139Z,77.20
2023-04-10T05:28:45.044Z,77.40
2023-04-10T05:31:11.934Z,77.10
2023-04-10T05:33:38.788Z,77.20
2023-04-10T05:36:06.014Z,77.40
2023-04-10T05:38:33.093Z,77.40
2023-04-10T05:41:00.090Z,77.60
2023-04-10T05:43:27.038Z,77.60
2023-04-10T05:45:53.941Z,77.60
2023-04-10T05:48:20.760Z,77.60
2023-04-10T05:50:47.598Z,77.60
2023-04-10T05:53:14.903Z,77.40
2023-04-10T05:55:41.844Z,77.20
2023-04-10T05:58:08.820Z,77.20
2023-04-10T06:00:36.129Z,77.40
2023-04-10T06:03:03.771Z,77.50
2023-04-10T06:05:30.870Z,77.40
2023-04-10T06:07:58.492Z,77.50
2023-04-10T06:10:28.426Z,77.70
2023-04-10T06:12:55.550Z,77.70
2023-04-10T06:15:22.430Z,77.40
2023-04-10T06:17:49.439Z,77.20
2023-04-10T06:20:16.476Z,77.30
2023-04-10T06:22:43.420Z,77.40
2023-04-10T06:25:10.351Z,77.50
2023-04-10T06:27:37.409Z,77.70
2023-04-10T06:30:04.507Z,77.80
2023-04-10T06:32:31.952Z,77.80
2023-04-10T06:34:58.952Z,77.80
2023-04-10T06:37:31.340Z,80.00
2023-04-10T06:40:05.559Z,79.40
2023-04-10T06:42:32.507Z,77.90
2023-04-10T06:44:59.365Z,76.90
2023-04-10T06:47:26.637Z,76.50
2023-04-10T06:49:53.487Z,76.50
2023-04-10T06:52:20.494Z,76.60
2023-04-10T06:54:47.601Z,76.70
2023-04-10T06:57:14.598Z,76.90
2023-04-10T06:59:43.682Z,77.20
2023-04-10T07:02:11.132Z,77.30
2023-04-10T07:04:38.131Z,77.30
2023-04-10T07:07:09.887Z,77.20
2023-04-10T07:09:37.290Z,77.00
2023-04-10T07:12:04.293Z,77.00
2023-04-10T07:14:33.072Z,77.10
2023-04-10T07:17:00.126Z,77.20
2023-04-10T07:19:27.401Z,77.10
2023-04-10T07:21:54.428Z,77.10
2023-04-10T07:24:21.436Z,76.90
2023-04-10T07:26:48.407Z,76.60
2023-04-10T07:29:16.054Z,76.70
2023-04-10T07:31:43.087Z,76.60
2023-04-10T07:34:11.323Z,76.50
2023-04-10T07:36:38.320Z,76.80
2023-04-10T07:39:05.216Z,77.00
2023-04-10T07:41:32.164Z,77.10
2023-04-10T07:43:59.012Z,76.90
2023-04-10T07:46:27.236Z,76.60
2023-04-10T07:48:55.755Z,76.70
2023-04-10T07:51:23.308Z,76.50
2023-04-10T07:53:50.273Z,76.90
2023-04-10T07:56:18.172Z,77.00
2023-04-10T07:58:45.155Z,77.30
2023-04-10T08:01:12.405Z,77.20
2023-04-10T08:03:40.997Z,77.30
2023-04-10T08:06:09.487Z,77.20
2023-04-10T08:08:37.719Z,77.10
2023-04-10T08:11:08.557Z,77.20
2023-04-10T08:13:35.647Z,77.30
2023-04-10T08:16:02.529Z,77.20
2023-04-10T08:18:29.496Z,77.10
2023-04-10T08:20:56.424Z,77.20
2023-04-10T08:23:23.477Z,77.30
2023-04-10T08:25:50.405Z,77.30
2023-04-10T08:28:17.387Z,77.30
2023-04-10T08:30:44.408Z,77.30
2023-04-10T08:33:11.393Z,77.30
2023-04-10T08:35:38.312Z,77.40
2023-04-10T08:38:13.697Z,77.20
2023-04-10T08:40:41.346Z,77.20
2023-04-10T08:43:08.216Z,77.20
2023-04-10T08:45:35.124Z,77.30
2023-04-10T08:48:05.566Z,77.10
2023-04-10T08:50:34.155Z,77.20
2023-04-10T08:53:03.789Z,77.20
2023-04-10T08:55:30.836Z,77.40
2023-04-10T08:58:01.578Z,77.30
2023-04-10T09:00:32.845Z,77.20
2023-04-10T09:03:00.460Z,77.20
2023-04-10T09:05:28.587Z,77.10
2023-04-10T09:07:55.773Z,77.20
2023-04-10T09:10:23.211Z,77.30
2023-04-10T09:12:50.140Z,77.30
2023-04-10T09:15:17.129Z,77.10
2023-04-10T09:17:57.379Z,76.90
2023-04-10T09:20:25.259Z,76.90
2023-04-10T09:22:52.511Z,76.80
2023-04-10T09:25:36.800Z,76.90
2023-04-10T09:28:05.017Z,77.00
2023-04-10T09:30:40.265Z,77.20
2023-04-10T09:33:30.263Z,77.30
2023-04-10T09:35:58.135Z,77.70
2023-04-10T09:38:25.965Z,77.70
2023-04-10T09:40:54.424Z,77.30
2023-04-10T09:43:25.884Z,77.00
2023-04-10T09:45:59.533Z,76.90
2023-04-10T09:48:28.932Z,77.10
2023-04-10T09:50:56.758Z,76.90
2023-04-10T09:53:23.710Z,77.00
2023-04-10T09:55:50.986Z,77.20
2023-04-10T09:58:19.074Z,77.00
2023-04-10T10:00:49.509Z,76.90
2023-04-10T10:03:17.647Z,77.10
2023-04-10T10:05:45.638Z,76.90
2023-04-10T10:08:14.180Z,76.90
2023-04-10T10:10:46.225Z,77.00
2023-04-10T10:13:19.618Z,76.80
2023-04-10T10:15:58.000Z,76.30
2023-04-10T10:18:27.921Z,75.70
2023-04-10T10:20:55.131Z,75.40
2023-04-10T10:23:22.592Z,75.00
2023-04-10T10:25:50.583Z,74.50
2023-04-10T10:28:18.220Z,74.10
2023-04-10T10:30:45.548Z,73.70
2023-04-10T10:33:13.582Z,73.70
2023-04-10T10:35:41.420Z,73.80
2023-04-10T10:38:08.716Z,73.30
2023-04-10T10:40:40.576Z,72.00
2023-04-10T10:43:15.482Z,71.80
2023-04-10T10:45:59.407Z,71.70
2023-04-10T10:48:26.561Z,71.70
2023-04-10T10:51:00.729Z,71.20
2023-04-10T10:53:41.361Z,71.00
2023-04-10T10:56:28.272Z,70.30
2023-04-10T10:58:58.934Z,69.30
2023-04-10T11:01:28.289Z,69.00
2023-04-10T11:03:55.350Z,68.10
2023-04-10T11:06:44.239Z,67.40
2023-04-10T11:09:31.938Z,66.80
2023-04-10T11:12:01.767Z,65.80
2023-04-10T11:14:30.004Z,64.90
2023-04-10T11:16:56.903Z,64.00
2023-04-10T11:19:26.429Z,63.50
2023-04-10T11:21:59.560Z,63.10
2023-04-10T11:24:26.804Z,61.80
2023-04-10T11:26:53.690Z,60.70
2023-04-10T11:29:20.557Z,60.30
2023-04-10T11:31:55.467Z,60.20
2023-04-10T11:34:22.455Z,59.60
2023-04-10T11:36:49.497Z,58.80
2023-04-10T11:39:19.096Z,58.10
2023-04-10T11:41:46.092Z,57.40
2023-04-10T11:44:13.937Z,56.40
2023-04-10T11:46:47.384Z,55.20
2023-04-10T11:49:18.410Z,54.70
2023-04-10T11:51:46.434Z,54.20
2023-04-10T11:54:14.636Z,54.30
2023-04-10T11:56:42.246Z,53.70
2023-04-10T11:59:14.609Z,53.20
2023-04-10T12:01:44.018Z,53.10
2023-04-10T12:04:18.072Z,52.70
2023-04-10T12:06:56.811Z,52.30
2023-04-10T12:09:24.385Z,51.80
2023-04-10T12:12:04.470Z,52.00
2023-04-10T12:14:41.138Z,51.80
2023-04-10T12:17:08.904Z,51.10
2023-04-10T12:19:36.248Z,51.40
2023-04-10T12:22:03.197Z,51.10
2023-04-10T12:24:49.425Z,50.60
2023-04-10T12:27:17.727Z,50.40
2023-04-10T12:29:45.553Z,50.20
2023-04-10T12:32:12.446Z,49.70
2023-04-10T12:34:39.410Z,49.80
2023-04-10T12:37:08.033Z,49.90
2023-04-10T12:39:35.016Z,49.70
2023-04-10T12:42:17.209Z,48.90
2023-04-10T12:44:53.082Z,49.10
2023-04-10T12:47:20.081Z,49.40
2023-04-10T12:50:05.649Z,49.30
2023-04-10T12:52:32.728Z,49.20
2023-04-10T12:55:31.798Z,48.90
2023-04-10T12:57:58.768Z,48.40
2023-04-10T13:00:25.939Z,47.80
2023-04-10T13:02:53.018Z,47.30
2023-04-10T13:05:21.866Z,47.00
2023-04-10T13:07:52.868Z,47.70
2023-04-10T13:10:20.345Z,48.00
2023-04-10T13:12:47.362Z,48.10
2023-04-10T13:15:14.263Z,48.20
2023-04-10T13:17:42.027Z,47.90
2023-04-10T13:20:13.631Z,47.40
2023-04-10T13:22:40.648Z,46.90
2023-04-10T13:25:07.639Z,46.50
2023-04-10T13:27:34.593Z,47.20
2023-04-10T13:30:01.476Z,47.60
2023-04-10T13:32:28.406Z,47.70
2023-04-10T13:34:56.235Z,47.80
2023-04-10T13:37:23.489Z,47.90
2023-04-10T13:39:50.474Z,47.90
2023-04-10T13:42:17.325Z,47.70
2023-04-10T13:44:44.159Z,47.40
2023-04-10T13:47:11.280Z,46.90
2023-04-10T13:49:38.634Z,46.30
2023-04-10T13:52:05.705Z,46.30
2023-04-10T13:54:32.579Z,45.50
2023-04-10T13:56:59.579Z,45.70
2023-04-10T13:59:26.407Z,45.70
2023-04-10T14:01:53.385Z,45.80
2023-04-10T14:04:20.389Z,45.70
2023-04-10T14:06:47.886Z,45.30
2023-04-10T14:09:16.036Z,45.10
2023-04-10T14:11:42.918Z,45.20
2023-04-10T14:14:09.798Z,45.40
2023-04-10T14:16:36.834Z,45.20
2023-04-10T14:19:03.963Z,45.40
2023-04-10T14:21:31.876Z,45.60
2023-04-10T14:24:00.066Z,45.40
2023-04-10T14:26:27.484Z,45.40
2023-04-10T14:28:54.765Z,45.00
2023-04-10T14:31:22.049Z,44.20
2023-04-10T14:33:49.498Z,44.50
2023-04-10T14:36:16.469Z,44.90
2023-04-10T14:38:43.465Z,45.10
2023-04-10T14:41:10.414Z,45.40
2023-04-10T14:43:37.657Z,45.30
2023-04-10T14:46:04.709Z,45.30
2023-04-10T14:48:31.864Z,45.30
2023-04-10T14:50:59.304Z,45.30
2023-04-10T14:53:26.261Z,45.40
2023-04-10T14:55:53.199Z,45.60
2023-04-10T14:58:20.213Z,45.50
2023-04-10T15:00:47.267Z,45.60
2023-04-10T15:03:14.232Z,45.30
2023-04-10T15:05:41.250Z,45.50
2023-04-10T15:08:08.141Z,45.50
2023-04-10T15:10:35.100Z,45.60
2023-04-10T15:13:02.118Z,45.60
2023-04-10T15:15:28.987Z,45.60
2023-04-10T15:17:55.923Z,45.60
2023-04-10T15:20:22.887Z,45.50
2023-04-10T15:22:49.872Z,45.80
2023-04-10T15:25:16.833Z,45.80
2023-04-10T15:27:43.690Z,46.00
2023-04-10T15:30:11.173Z,45.90
2023-04-10T15:32:38.549Z,45.70
2023-04-10T15:35:06.028Z,45.70
2023-04-10T15:37:35.139Z,45.90
2023-04-10T15:40:02.393Z,46.10
2023-04-10T15:42:29.468Z,46.40
2023-04-10T15:44:56.413Z,46.10
2023-04-10T15:47:23.269Z,46.10
2023-04-10T15:49:50.282Z,46.10
2023-04-10T15:52:17.131Z,46.10
2023-04-10T15:54:44.187Z,46.10
2023-04-10T15:57:11.082Z,46.10
2023-04-10T15:59:37.966Z,46.20
2023-04-10T16:02:05.314Z,46.20
2023-04-10T16:04:32.493Z,46.10
2023-04-10T16:06:59.573Z,46.20
2023-04-10T16:09:26.926Z,46.20
2023-04-10T16:11:54.743Z,46.20
2023-04-10T16:14:22.750Z,46.40
2023-04-10T16:16:50.020Z,46.40
2023-04-10T16:19:16.979Z,46.20
2023-04-10T16:21:43.949Z,46.40
2023-04-10T16:24:10.917Z,46.50
2023-04-10T16:26:37.797Z,46.70
2023-04-10T16:29:04.746Z,46.80
2023-04-10T16:31:31.791Z,46.80
2023-04-10T16:33:58.797Z,47.00
2023-04-10T16:36:25.731Z,47.00
2023-04-10T16:38:52.889Z,47.00
2023-04-10T16:41:21.130Z,46.90
2023-04-10T16:43:48.256Z,46.90
2023-04-10T16:46:15.298Z,47.00
2023-04-10T16:48:42.442Z,47.00
2023-04-10T16:51:16.151Z,47.00
2023-04-10T16:53:43.400Z,47.10
2023-04-10T16:56:10.396Z,47.30
2023-04-10T16:58:37.994Z,47.40
2023-04-10T17:01:16.106Z,47.50
2023-04-10T17:03:44.367Z,47.50
2023-04-10T17:06:11.327Z,47.70
2023-04-10T17:08:38.310Z,47.90
2023-04-10T17:11:05.602Z,48.00
2023-04-10T17:13:32.640Z,48.10
2023-04-10T17:15:59.588Z,48.30
2023-04-10T17:18:27.476Z,48.40
2023-04-10T17:20:54.406Z,48.40
2023-04-10T17:23:21.391Z,48.60
2023-04-10T17:25:48.371Z,48.70
2023-04-10T17:28:18.001Z,48.90
2023-04-10T17:30:45.211Z,48.90
2023-04-10T17:33:12.135Z,49.00
2023-04-10T17:35:38.992Z,49.10
2023-04-10T17:38:06.305Z,49.10
2023-04-10T17:40:33.429Z,49.10
2023-04-10T17:43:00.397Z,49.10
2023-04-10T17:45:27.485Z,49.20
2023-04-10T17:47:54.578Z,49.30
2023-04-10T17:50:22.218Z,49.40
2023-04-10T17:52:49.256Z,49.70
2023-04-10T17:55:20.998Z,49.80
2023-04-10T17:57:48.883Z,50.00
2023-04-10T18:00:17.276Z,50.30
2023-04-10T18:02:45.379Z,50.70
2023-04-10T18:05:12.624Z,51.10
2023-04-10T18:07:39.617Z,51.40
2023-04-10T18:10:09.732Z,51.70
2023-04-10T18:12:38.077Z,51.90
2023-04-10T18:15:05.428Z,52.10
2023-04-10T18:17:32.458Z,52.20
2023-04-10T18:19:59.582Z,52.50
2023-04-10T18:22:26.615Z,52.70
2023-04-10T18:24:53.677Z,52.90
2023-04-10T18:27:20.835Z,53.20
2023-04-10T18:29:47.767Z,53.30
2023-04-10T18:32:14.841Z,53.60
2023-04-10T18:34:42.027Z,53.90
2023-04-10T18:37:10.021Z,54.10
2023-04-10T18:39:38.466Z,54.20
2023-04-10T18:42:07.798Z,54.30
2023-04-10T18:44:35.130Z,54.60
2023-04-10T18:47:04.694Z,54.80
2023-04-10T18:49:32.225Z,55.00
2023-04-10T18:51:59.161Z,55.30
2023-04-10T18:54:29.268Z,55.30
2023-04-10T18:56:56.914Z,55.60
2023-04-10T18:59:23.951Z,55.80
2023-04-10T19:01:51.126Z,55.80
2023-04-10T19:04:20.080Z,56.00
2023-04-10T19:06:47.466Z,56.10
2023-04-10T19:09:14.672Z,56.10
2023-04-10T19:11:41.672Z,56.20
2023-04-10T19:14:08.646Z,56.30
2023-04-10T19:16:35.746Z,56.30
2023-04-10T19:19:02.748Z,56.50
2023-04-10T19:21:29.765Z,56.60
2023-04-10T19:23:56.711Z,56.70
2023-04-10T19:26:23.751Z,56.80
2023-04-10T19:28:54.217Z,57.00
2023-04-10T19:31:21.372Z,57.10
2023-04-10T19:33:48.395Z,57.20
2023-04-10T19:36:16.631Z,57.50
2023-04-10T19:38:48.764Z,57.70
2023-04-10T19:41:16.219Z,57.80
2023-04-10T19:43:45.283Z,58.00
2023-04-10T19:46:21.320Z,57.90
2023-04-10T19:48:48.796Z,57.70
2023-04-10T19:51:16.203Z,58.10
2023-04-10T19:53:43.272Z,58.00
2023-04-10T19:56:10.307Z,58.20
2023-04-10T19:58:40.891Z,58.30
2023-04-10T20:01:24.252Z,58.60
2023-04-10T20:03:51.412Z,58.50
2023-04-10T20:06:18.619Z,58.50
2023-04-10T20:08:45.557Z,58.50
2023-04-10T20:11:12.417Z,58.60
2023-04-10T20:13:41.116Z,58.60
2023-04-10T20:16:08.337Z,58.80
2023-04-10T20:18:36.224Z,58.70
2023-04-10T20:21:03.322Z,59.00
2023-04-10T20:23:30.336Z,59.00
2023-04-10T20:25:57.327Z,59.00
2023-04-10T20:28:24.876Z,59.10
2023-04-10T20:30:51.873Z,59.00
2023-04-10T20:33:18.796Z,59.20
2023-04-10T20:35:46.025Z,59.20
2023-04-10T20:38:13.017Z,59.10
2023-04-10T20:40:40.076Z,59.20
2023-04-10T20:43:14.117Z,59.40
2023-04-10T20:45:41.113Z,59.50
2023-04-10T20:48:08.755Z,59.20
2023-04-10T20:50:37.116Z,59.20
2023-04-10T20:53:04.110Z,59.40
2023-04-10T20:55:30.977Z,59.50
2023-04-10T20:57:58.808Z,59.60
2023-04-10T21:00:25.936Z,59.70
2023-04-10T21:02:52.994Z,59.60
2023-04-10T21:05:20.201Z,59.60
2023-04-10T21:07:47.123Z,59.60
2023-04-10T21:10:17.404Z,59.80
2023-04-10T21:12:44.544Z,59.70
2023-04-10T21:15:11.660Z,59.90
2023-04-10T21:17:38.633Z,60.00
2023-04-10T21:20:06.282Z,60.20
2023-04-10T21:22:33.629Z,60.30
2023-04-10T21:25:00.669Z,60.20
2023-04-10T21:27:27.561Z,60.30
2023-04-10T21:29:54.390Z,60.60
2023-04-10T21:32:21.330Z,60.80
2023-04-10T21:34:48.353Z,60.70
2023-04-10T21:37:15.318Z,60.80
2023-04-10T21:39:42.360Z,60.70
2023-04-10T21:42:09.433Z,60.80
2023-04-10T21:44:36.423Z,60.90
2023-04-10T21:47:03.416Z,60.90
2023-04-10T21:49:30.844Z,60.80
2023-04-10T21:51:59.260Z,60.60
2023-04-10T21:54:26.195Z,60.60
2023-04-10T21:56:53.123Z,60.70
2023-04-10T21:59:20.034Z,61.00
2023-04-10T22:01:47.186Z,61.20
2023-04-10T22:04:14.284Z,60.90
2023-04-10T22:06:41.279Z,60.80
2023-04-10T22:09:08.150Z,60.70
2023-04-10T22:11:35.780Z,60.70
2023-04-10T22:14:15.884Z,60.90
2023-04-10T22:16:45.115Z,60.90
2023-04-10T22:19:12.227Z,60.90
2023-04-10T22:21:39.073Z,61.00
2023-04-10T22:24:06.405Z,61.10
2023-04-10T22:26:34.217Z,61.00
2023-04-10T22:29:01.119Z,61.20
2023-04-10T22:31:28.080Z,61.30
2023-04-10T22:33:55.063Z,61.30
2023-04-10T22:36:22.149Z,61.40
2023-04-10T22:38:48.999Z,61.30
2023-04-10T22:41:15.854Z,61.40
2023-04-10T22:43:42.789Z,61.50
2023-04-10T22:46:09.748Z,61.50
2023-04-10T22:48:36.985Z,61.60
2023-04-10T22:51:03.931Z,61.80
2023-04-10T22:53:30.884Z,61.80
2023-04-10T22:55:57.791Z,61.80
2023-04-10T22:58:24.681Z,61.70
2023-04-10T23:00:51.576Z,61.80
2023-04-10T23:03:18.501Z,61.80
2023-04-10T23:05:45.584Z,61.70
2023-04-10T23:08:12.786Z,61.60
2023-04-10T23:10:39.646Z,61.70
2023-04-10T23:13:06.530Z,61.50
2023-04-10T23:15:33.557Z,61.30
2023-04-10T23:18:00.574Z,61.30
2023-04-10T23:20:27.489Z,61.40
2023-04-10T23:22:57.719Z,61.80
2023-04-10T23:25:24.734Z,61.80
2023-04-10T23:27:52.562Z,61.80
2023-04-10T23:30:19.470Z,61.80
2023-04-10T23:32:46.389Z,62.30
2023-04-10T23:35:13.308Z,62.20
2023-04-10T23:37:40.255Z,62.40
2023-04-10T23:40:07.506Z,62.80
2023-04-10T23:42:34.446Z,62.70
2023-04-10T23:45:01.366Z,62.60
2023-04-10T23:47:28.228Z,62.40
2023-04-10T23:49:55.710Z,62.40
2023-04-10T23:52:22.620Z,62.40
2023-04-10T23:54:49.460Z,62.40
2023-04-10T23:57:16.423Z,62.70
2023-04-10T23:59:43.307Z,62.60
